Time;durP1;ratioP1;P1;durP2;ratioP2;P2;SDS_P1;SDS_P2;PMS_P1;PMS_P2;Temp;Humidity;BMP_temperature;BMP_pressure;BME280_temperature;BME280_humidity;BME280_pressure;Samples;Min_cycle;Max_cycle;Signal;HPM_P1;HPM_P2
2022/04/16 00:01:15;;;;;;;27.23;18.15;;;14.20;99.90;;;;;;6275890;22;20500;-82
2022/04/16 00:03:41;;;;;;;34.95;18.65;;;14.20;99.90;;;;;;6275824;22;20011;-81
2022/04/16 00:06:09;;;;;;;30.25;17.35;;;14.10;99.90;;;;;;6250194;22;20430;-82
2022/04/16 00:08:36;;;;;;;28.83;17.35;;;14.10;99.90;;;;;;6277712;22;20004;-81
2022/04/16 00:11:05;;;;;;;31.00;18.23;;;14.10;99.90;;;;;;6275786;22;20503;-81
2022/04/16 00:13:32;;;;;;;28.63;17.95;;;14.10;99.90;;;;;;6277217;22;20034;-81
2022/04/16 00:15:59;;;;;;;27.67;18.85;;;14.00;99.90;;;;;;6275459;22;20472;-82
2022/04/16 00:18:26;;;;;;;26.92;17.13;;;14.00;99.90;;;;;;6277214;22;20008;-81
2022/04/16 00:20:53;;;;;;;30.70;17.88;;;13.90;99.90;;;;;;6275724;22;20341;-81
2022/04/16 00:23:21;;;;;;;27.48;18.13;;;13.90;99.90;;;;;;6275730;22;20004;-81
2022/04/16 00:25:50;;;;;;;31.65;18.60;;;13.90;99.90;;;;;;6275509;22;20004;-81
2022/04/16 00:28:16;;;;;;;29.13;18.02;;;13.80;99.90;;;;;;6275760;22;19996;-81
2022/04/16 00:30:43;;;;;;;26.50;17.25;;;13.80;99.90;;;;;;6276099;22;20012;-81
2022/04/16 00:33:15;;;;;;;26.48;17.20;;;13.80;99.90;;;;;;6275643;22;20019;-81
2022/04/16 00:35:44;;;;;;;28.30;16.73;;;13.80;99.90;;;;;;6277127;22;20007;-81
2022/04/16 00:38:12;;;;;;;28.33;17.13;;;13.80;99.90;;;;;;6277310;22;20019;-81
2022/04/16 00:40:39;;;;;;;23.60;15.15;;;13.80;99.90;;;;;;6275492;22;20483;-81
2022/04/16 00:43:06;;;;;;;24.00;15.70;;;13.80;99.90;;;;;;6275473;22;20034;-81
2022/04/16 00:45:34;;;;;;;24.25;15.52;;;13.70;99.90;;;;;;6301824;22;20003;-81
2022/04/16 00:48:00;;;;;;;25.20;13.90;;;13.70;99.90;;;;;;6277133;22;20004;-81
2022/04/16 00:50:27;;;;;;;23.42;14.70;;;13.70;99.90;;;;;;6277428;22;20000;-81
2022/04/16 00:52:54;;;;;;;21.10;14.57;;;13.70;99.90;;;;;;6277106;22;20007;-81
2022/04/16 00:55:22;;;;;;;22.77;14.77;;;13.70;99.90;;;;;;6275574;22;20000;-81
2022/04/16 00:57:49;;;;;;;22.90;14.77;;;13.70;99.90;;;;;;6276706;22;20037;-81
2022/04/16 01:00:16;;;;;;;24.08;14.63;;;13.70;99.90;;;;;;6224651;22;20032;-81
2022/04/16 01:02:47;;;;;;;19.48;13.02;;;13.70;99.90;;;;;;6250127;22;20014;-81
2022/04/16 01:05:13;;;;;;;21.63;14.07;;;13.70;99.90;;;;;;6250379;22;20053;-82
2022/04/16 01:07:59;;;;;;;18.88;12.23;;;13.70;99.90;;;;;;6250357;22;20364;-81
2022/04/16 01:10:29;;;;;;;17.63;12.23;;;13.70;99.90;;;;;;6249661;22;20008;-82
2022/04/16 01:13:01;;;;;;;21.77;12.32;;;13.70;99.90;;;;;;6249704;22;20011;-82
2022/04/16 01:15:29;;;;;;;18.13;11.68;;;13.70;99.90;;;;;;6249831;22;20337;-82
2022/04/16 01:17:58;;;;;;;18.42;12.48;;;13.70;99.90;;;;;;6249734;22;20066;-82
2022/04/16 01:20:41;;;;;;;17.45;12.85;;;13.70;99.90;;;;;;6276949;22;20000;-82
2022/04/16 01:23:08;;;;;;;24.55;13.00;;;13.70;99.90;;;;;;6249990;22;20003;-82
2022/04/16 01:25:36;;;;;;;21.05;11.88;;;13.70;99.90;;;;;;6277578;22;20022;-82
2022/04/16 01:28:04;;;;;;;18.63;12.45;;;13.70;99.90;;;;;;6279293;22;20009;-81
2022/04/16 01:30:31;;;;;;;18.52;13.10;;;13.70;99.90;;;;;;6251982;22;20023;-82
2022/04/16 01:32:58;;;;;;;20.52;13.07;;;13.70;99.90;;;;;;6278975;22;20329;-82
2022/04/16 01:35:25;;;;;;;19.30;13.13;;;13.70;99.90;;;;;;6278744;22;19996;-82
2022/04/16 01:37:51;;;;;;;19.67;12.60;;;13.60;99.90;;;;;;6226340;22;20023;-82
2022/04/16 01:40:20;;;;;;;20.23;13.55;;;13.60;99.90;;;;;;6251996;22;20003;-82
2022/04/16 01:42:47;;;;;;;19.65;12.98;;;13.70;99.90;;;;;;6251565;22;20091;-81
2022/04/16 01:45:18;;;;;;;18.77;12.38;;;13.70;99.90;;;;;;6252190;22;20006;-81
2022/04/16 01:47:45;;;;;;;19.60;11.45;;;13.60;99.90;;;;;;6279007;22;20441;-82
2022/04/16 01:50:12;;;;;;;20.23;11.85;;;13.60;99.90;;;;;;6278756;22;20007;-81
2022/04/16 01:52:47;;;;;;;18.92;12.35;;;13.60;99.90;;;;;;6251755;22;20414;-81
2022/04/16 01:55:15;;;;;;;19.10;12.60;;;13.60;99.90;;;;;;6278936;22;20080;-81
2022/04/16 01:57:42;;;;;;;23.20;11.85;;;13.60;99.90;;;;;;6269077;22;20015;-81
2022/04/16 02:00:12;;;;;;;16.17;11.55;;;13.60;99.90;;;;;;6226266;22;20323;-81
2022/04/16 02:02:41;;;;;;;21.55;12.90;;;13.60;99.90;;;;;;6278558;22;20042;-81
2022/04/16 02:05:09;;;;;;;21.02;12.50;;;13.60;99.90;;;;;;6276850;22;20334;-81
2022/04/16 02:07:38;;;;;;;16.17;11.40;;;13.60;99.90;;;;;;6278558;22;20014;-81
2022/04/16 02:10:06;;;;;;;21.95;11.57;;;13.60;99.90;;;;;;6251526;22;20003;-81
2022/04/16 02:12:36;;;;;;;19.00;11.80;;;13.60;99.90;;;;;;6251416;22;20082;-82
2022/04/16 02:15:03;;;;;;;21.50;11.15;;;13.60;99.90;;;;;;6226066;22;20384;-81
2022/04/16 02:17:33;;;;;;;15.65;11.25;;;13.60;99.90;;;;;;6251102;22;20337;-81
2022/04/16 02:20:00;;;;;;;20.48;12.38;;;13.60;99.90;;;;;;6251356;22;20012;-81
2022/04/16 02:22:26;;;;;;;21.50;11.98;;;13.60;99.90;;;;;;6251814;22;20010;-81
2022/04/16 02:24:53;;;;;;;17.60;11.18;;;13.60;99.90;;;;;;6278411;22;20007;-81
2022/04/16 02:27:20;;;;;;;21.33;12.52;;;13.60;99.90;;;;;;6278684;22;20079;-81
2022/04/16 02:29:47;;;;;;;19.27;12.75;;;13.50;99.90;;;;;;6278342;22;20075;-81
2022/04/16 02:32:14;;;;;;;22.13;13.00;;;13.50;99.90;;;;;;6276756;22;20085;-81
2022/04/16 02:34:41;;;;;;;22.05;13.50;;;13.50;99.90;;;;;;6251300;22;20376;-81
2022/04/16 02:37:08;;;;;;;18.98;12.50;;;13.50;99.90;;;;;;6277628;22;20434;-81
2022/04/16 02:39:41;;;;;;;20.40;13.85;;;13.50;99.90;;;;;;6278575;22;20010;-81
2022/04/16 02:42:07;;;;;;;22.48;14.43;;;13.50;99.90;;;;;;6278270;22;20074;-81
2022/04/16 02:47:25;;;;;;;23.73;14.35;;;13.50;99.90;;;;;;6278545;22;20437;-81
2022/04/16 02:49:52;;;;;;;26.15;14.70;;;13.50;99.90;;;;;;6251107;22;20456;-81
2022/04/16 02:52:19;;;;;;;25.40;15.13;;;13.50;99.90;;;;;;6251074;22;20371;-81
2022/04/16 02:54:46;;;;;;;25.38;15.80;;;13.50;99.90;;;;;;6276405;22;20004;-81
2022/04/16 02:57:14;;;;;;;29.63;16.52;;;13.50;99.90;;;;;;6255742;22;20022;-81
2022/04/16 02:59:40;;;;;;;27.25;15.18;;;13.50;99.90;;;;;;6276367;22;20039;-81
2022/04/16 03:02:07;;;;;;;32.33;15.85;;;13.50;99.90;;;;;;6250964;22;20007;-81
2022/04/16 03:04:37;;;;;;;28.75;15.80;;;13.50;99.90;;;;;;6276956;22;20329;-81
2022/04/16 03:07:04;;;;;;;25.27;16.35;;;13.50;99.90;;;;;;6276553;22;20057;-81
2022/04/16 03:09:31;;;;;;;32.28;17.77;;;13.50;99.90;;;;;;6277934;22;20326;-81
2022/04/16 03:11:58;;;;;;;32.75;18.02;;;13.50;99.90;;;;;;6277976;22;20027;-81
2022/04/16 03:20:14;;;;;;;35.67;19.15;;;13.50;99.90;;;;;;6278218;22;20003;-81
2022/04/16 03:22:43;;;;;;;30.67;17.05;;;13.60;99.90;;;;;;6276335;22;20007;-81
2022/04/16 03:25:10;;;;;;;31.90;18.98;;;13.60;99.90;;;;;;6278046;22;20493;-81
2022/04/16 03:27:40;;;;;;;34.33;18.98;;;13.60;99.90;;;;;;6278133;22;20074;-80
2022/04/16 03:30:09;;;;;;;32.90;20.00;;;13.60;99.90;;;;;;6250601;22;20004;-81
2022/04/16 03:32:40;;;;;;;35.15;20.73;;;13.60;99.90;;;;;;6276188;22;20429;-81
2022/04/16 03:35:09;;;;;;;34.22;20.13;;;13.60;99.90;;;;;;6277630;22;20003;-81
2022/04/16 03:37:36;;;;;;;34.15;19.05;;;13.70;99.90;;;;;;6276207;22;20429;-81
2022/04/16 03:40:04;;;;;;;34.00;20.45;;;13.70;99.90;;;;;;6301868;22;20015;-81
2022/04/16 03:42:31;;;;;;;36.78;19.08;;;13.70;99.90;;;;;;6276041;22;20003;-83
2022/04/16 03:45:01;;;;;;;32.88;19.08;;;13.70;99.90;;;;;;6250581;22;20348;-83
2022/04/16 03:47:29;;;;;;;32.88;18.08;;;13.70;99.90;;;;;;6276094;22;20056;-82
2022/04/16 03:49:56;;;;;;;30.27;17.55;;;13.70;99.90;;;;;;6277957;22;20003;-83
2022/04/16 03:52:22;;;;;;;32.08;17.98;;;13.70;99.90;;;;;;6250438;22;20039;-82
2022/04/16 04:00:25;;;;;;;34.38;18.55;;;13.80;99.90;;;;;;6277799;22;20004;-82
2022/04/16 04:02:54;;;;;;;35.28;19.73;;;13.80;99.90;;;;;;6275878;22;20008;-82
2022/04/16 04:05:21;;;;;;;37.25;22.40;;;13.80;99.90;;;;;;6276434;22;20004;-82
2022/04/16 04:07:48;;;;;;;36.75;18.80;;;13.80;99.90;;;;;;6277709;22;20038;-83
2022/04/16 04:10:17;;;;;;;33.38;19.35;;;13.80;99.90;;;;;;6275887;22;20008;-82
2022/04/16 04:12:44;;;;;;;33.95;18.58;;;13.80;99.90;;;;;;6301757;22;20022;-83
2022/04/16 04:15:10;;;;;;;32.90;17.33;;;13.80;99.90;;;;;;6276199;22;19996;-84
2022/04/16 04:17:49;;;;;;;33.17;18.52;;;13.80;99.90;;;;;;6276474;22;20016;-83
2022/04/16 04:20:17;;;;;;;29.60;16.92;;;13.80;99.90;;;;;;6275916;22;20099;-82
2022/04/16 04:22:43;;;;;;;43.17;18.48;;;13.80;99.90;;;;;;6276138;22;20373;-81
2022/04/16 04:25:10;;;;;;;30.73;18.25;;;13.80;99.90;;;;;;6277358;22;20057;-82
2022/04/16 04:27:36;;;;;;;40.63;19.50;;;13.90;99.90;;;;;;6250174;22;20086;-82
2022/04/16 04:30:05;;;;;;;35.47;19.63;;;13.90;99.90;;;;;;6275755;22;20008;-81
2022/04/16 04:32:32;;;;;;;35.03;18.25;;;13.90;99.90;;;;;;6277496;22;20003;-82
2022/04/16 04:34:58;;;;;;;36.00;19.10;;;13.90;99.90;;;;;;6277235;22;20471;-82
2022/04/16 04:37:25;;;;;;;30.88;17.63;;;13.90;99.90;;;;;;6300839;22;20047;-81
2022/04/16 04:39:51;;;;;;;28.58;16.80;;;13.90;99.90;;;;;;6275562;22;20069;-82
2022/04/16 04:42:33;;;;;;;41.13;17.95;;;13.90;99.90;;;;;;6277153;22;20004;-82
2022/04/16 04:45:06;;;;;;;32.28;16.40;;;13.90;99.90;;;;;;6277148;22;20010;-82
2022/04/16 04:47:33;;;;;;;32.97;15.50;;;13.90;99.90;;;;;;6275669;22;20014;-82
2022/04/16 04:49:59;;;;;;;33.03;15.95;;;14.00;99.90;;;;;;6277145;22;20422;-82
2022/04/16 04:52:27;;;;;;;34.00;14.90;;;14.00;99.90;;;;;;6277360;22;20074;-82
2022/04/16 04:54:54;;;;;;;33.55;14.85;;;14.00;99.90;;;;;;6275285;22;20091;-82
2022/04/16 04:57:20;;;;;;;30.05;13.32;;;14.00;99.90;;;;;;6300831;22;20095;-82
2022/04/16 04:59:47;;;;;;;27.20;14.35;;;14.10;99.90;;;;;;6277297;22;20318;-82
2022/04/16 05:02:13;;;;;;;30.70;13.65;;;14.10;99.90;;;;;;6277255;22;20015;-82
2022/04/16 05:04:40;;;;;;;26.92;12.85;;;14.10;99.90;;;;;;6277341;22;20084;-82
2022/04/16 05:07:13;;;;;;;33.08;13.88;;;14.10;99.90;;;;;;6275601;22;20031;-82
2022/04/16 05:09:40;;;;;;;30.48;14.68;;;14.10;99.90;;;;;;6275445;22;20441;-82
2022/04/16 05:12:07;;;;;;;30.33;13.05;;;14.10;99.90;;;;;;6249968;22;20056;-82
2022/04/16 05:14:33;;;;;;;31.00;13.68;;;14.20;99.90;;;;;;6275249;22;20337;-82
2022/04/16 05:17:03;;;;;;;28.45;14.57;;;14.20;99.90;;;;;;6249493;22;20012;-82
2022/04/16 05:19:30;;;;;;;24.85;11.82;;;14.30;99.90;;;;;;6275264;22;20429;-82
2022/04/16 05:21:56;;;;;;;30.48;13.95;;;14.30;99.90;;;;;;6249894;22;20098;-83
2022/04/16 05:24:22;;;;;;;36.10;15.30;;;14.40;99.90;;;;;;6275499;22;20065;-82
2022/04/16 05:26:49;;;;;;;28.63;13.85;;;14.30;99.90;;;;;;6249787;22;20310;-82
2022/04/16 05:29:22;;;;;;;34.08;13.93;;;14.40;99.90;;;;;;6275202;22;20008;-82
2022/04/16 05:31:49;;;;;;;33.97;14.50;;;14.40;99.90;;;;;;6249825;22;20133;-82
2022/04/16 05:34:22;;;;;;;37.35;16.33;;;14.40;99.90;;;;;;6249718;22;20010;-82
2022/04/16 05:37:04;;;;;;;31.10;13.77;;;14.50;99.90;;;;;;6275101;22;20091;-82
2022/04/16 05:39:31;;;;;;;30.20;14.57;;;14.60;99.90;;;;;;6275316;22;20015;-82
2022/04/16 05:41:57;;;;;;;33.58;13.18;;;14.60;99.90;;;;;;6275323;22;20019;-82
2022/04/16 05:44:24;;;;;;;36.08;14.55;;;14.60;99.90;;;;;;6249639;22;20011;-82
2022/04/16 05:46:50;;;;;;;31.20;13.40;;;14.60;99.90;;;;;;6275733;22;20007;-82
2022/04/16 05:49:20;;;;;;;22.08;13.38;;;14.60;99.90;;;;;;6249825;22;20000;-82
2022/04/16 05:51:50;;;;;;;24.05;13.88;;;14.60;99.90;;;;;;6275220;22;20007;-82
2022/04/16 05:54:20;;;;;;;28.48;13.43;;;14.60;99.90;;;;;;6275123;22;20011;-82
2022/04/16 05:57:00;;;;;;;30.85;13.30;;;14.60;99.90;;;;;;6274901;22;20016;-82
2022/04/16 05:59:30;;;;;;;29.63;12.10;;;14.60;99.90;;;;;;6249182;22;20012;-82
2022/04/16 06:01:57;;;;;;;24.50;14.02;;;14.60;99.90;;;;;;6224401;22;20004;-82
2022/04/16 06:04:26;;;;;;;23.70;13.18;;;14.60;99.90;;;;;;6224287;22;20441;-82
2022/04/16 06:06:53;;;;;;;21.90;12.23;;;14.70;99.90;;;;;;6249622;22;20015;-82
2022/04/16 06:09:19;;;;;;;19.88;12.88;;;14.70;99.90;;;;;;6249925;22;20004;-82
2022/04/16 06:11:48;;;;;;;24.45;12.60;;;14.80;99.90;;;;;;6249404;22;20034;-82
2022/04/16 06:14:18;;;;;;;23.40;11.85;;;14.80;99.90;;;;;;6225710;22;20451;-83
2022/04/16 06:16:45;;;;;;;23.38;12.35;;;14.80;99.90;;;;;;6251231;22;20011;-83
2022/04/16 06:19:14;;;;;;;19.40;12.80;;;14.90;99.90;;;;;;6226087;22;20087;-83
2022/04/16 06:21:41;;;;;;;22.25;12.30;;;15.00;99.90;;;;;;6226148;22;20003;-83
2022/04/16 06:24:07;;;;;;;24.33;12.10;;;14.90;99.90;;;;;;6226059;22;20004;-83
2022/04/16 06:26:35;;;;;;;22.70;11.55;;;15.00;99.90;;;;;;6226127;22;20015;-82
2022/04/16 06:29:02;;;;;;;25.20;12.07;;;15.00;99.90;;;;;;6251290;22;20015;-82
2022/04/16 06:31:29;;;;;;;16.90;10.15;;;15.00;99.90;;;;;;6225903;22;20075;-81
2022/04/16 06:33:56;;;;;;;20.55;9.63;;;15.10;99.90;;;;;;6225857;22;20456;-83
2022/04/16 06:36:22;;;;;;;19.75;9.20;;;15.10;99.90;;;;;;6250981;22;19999;-83
2022/04/16 06:38:49;;;;;;;16.58;8.98;;;15.20;99.90;;;;;;6251035;22;20019;-82
2022/04/16 06:41:15;;;;;;;18.95;9.18;;;15.20;99.90;;;;;;6277307;22;20010;-84
2022/04/16 06:43:42;;;;;;;19.45;9.68;;;15.20;99.90;;;;;;6225834;22;20087;-83
2022/04/16 06:46:09;;;;;;;25.13;8.52;;;15.30;99.90;;;;;;6251185;22;20426;-83
2022/04/16 06:48:35;;;;;;;12.65;7.97;;;15.30;99.90;;;;;;6251032;22;20053;-82
2022/04/16 06:51:07;;;;;;;13.95;8.25;;;15.30;99.90;;;;;;6251150;22;20433;-83
2022/04/16 06:53:40;;;;;;;17.85;7.55;;;15.30;99.90;;;;;;6250940;22;20132;-83
2022/04/16 06:56:10;;;;;;;17.40;8.02;;;15.40;99.90;;;;;;6250945;22;20007;-83
2022/04/16 06:58:36;;;;;;;15.88;8.10;;;15.50;99.90;;;;;;6273173;22;20337;-82
2022/04/16 07:01:09;;;;;;;15.20;8.25;;;15.60;99.90;;;;;;6251034;22;20012;-83
2022/04/16 07:03:35;;;;;;;18.20;7.60;;;15.70;99.90;;;;;;6302283;22;20038;-83
2022/04/16 07:06:02;;;;;;;19.73;7.18;;;15.80;99.90;;;;;;6251202;22;20034;-83
2022/04/16 07:08:29;;;;;;;19.27;7.65;;;15.80;99.90;;;;;;6276226;22;20011;-82
2022/04/16 07:10:55;;;;;;;16.02;8.45;;;16.00;99.90;;;;;;6276305;22;20007;-83
2022/04/16 07:13:22;;;;;;;16.33;8.35;;;16.00;99.90;;;;;;6276354;22;20345;-83
2022/04/16 07:15:49;;;;;;;19.30;7.32;;;16.00;99.90;;;;;;6276162;22;20035;-83
2022/04/16 07:18:15;;;;;;;13.10;6.35;;;16.00;99.90;;;;;;6277979;22;20091;-83
2022/04/16 07:20:42;;;;;;;13.30;5.80;;;16.10;99.90;;;;;;6302101;22;20008;-82
2022/04/16 07:23:13;;;;;;;13.45;7.18;;;16.30;99.90;;;;;;6276125;22;20006;-83
2022/04/16 07:25:43;;;;;;;13.95;5.50;;;16.40;99.90;;;;;;6301785;22;20489;-82
2022/04/16 07:28:15;;;;;;;15.60;6.45;;;16.60;99.90;;;;;;6276121;22;20012;-82
2022/04/16 07:30:42;;;;;;;17.73;7.35;;;16.60;99.90;;;;;;6301976;22;20004;-82
2022/04/16 07:33:30;;;;;;;15.73;5.90;;;16.50;99.90;;;;;;6275994;22;20065;-82
2022/04/16 07:35:57;;;;;;;14.27;5.93;;;16.50;99.90;;;;;;6275800;22;20061;-82
2022/04/16 07:38:24;;;;;;;12.57;5.65;;;16.40;99.90;;;;;;6275869;22;20019;-82
2022/04/16 07:40:57;;;;;;;9.30;5.72;;;16.40;99.90;;;;;;6275874;22;20007;-82
2022/04/16 07:43:30;;;;;;;9.32;5.18;;;16.50;99.90;;;;;;6275836;22;20019;-84
2022/04/16 07:45:57;;;;;;;10.00;5.17;;;16.70;99.90;;;;;;6276010;22;20004;-84
2022/04/16 07:48:24;;;;;;;14.00;6.00;;;16.80;99.90;;;;;;6249579;22;20027;-84
2022/04/16 07:50:51;;;;;;;10.10;5.78;;;16.80;99.90;;;;;;6275064;22;20007;-85
2022/04/16 07:53:17;;;;;;;12.48;5.78;;;16.80;99.90;;;;;;6275684;22;20082;-85
2022/04/16 07:55:50;;;;;;;10.00;4.97;;;16.80;99.90;;;;;;6250670;22;20008;-85
2022/04/16 07:58:16;;;;;;;10.30;5.53;;;16.80;99.90;;;;;;6256938;22;20015;-84
2022/04/16 08:00:43;;;;;;;14.07;5.18;;;16.60;99.90;;;;;;6249484;22;20052;-84
2022/04/16 08:03:10;;;;;;;16.58;5.00;;;16.60;99.90;;;;;;6224086;22;20018;-83
2022/04/16 08:05:37;;;;;;;15.48;5.55;;;16.60;99.90;;;;;;6249551;22;20008;-84
2022/04/16 08:08:09;;;;;;;14.95;5.72;;;16.70;99.90;;;;;;6224285;22;20066;-84
2022/04/16 08:10:39;;;;;;;9.77;4.90;;;16.80;99.90;;;;;;6249715;22;20034;-84
2022/04/16 08:13:07;;;;;;;15.10;5.50;;;16.90;99.90;;;;;;6224937;22;20004;-85
2022/04/16 08:15:35;;;;;;;10.23;4.82;;;16.80;99.90;;;;;;6250230;22;20430;-84
2022/04/16 08:18:02;;;;;;;10.68;4.75;;;16.80;99.90;;;;;;6224530;22;20012;-85
2022/04/16 08:20:31;;;;;;;11.02;4.13;;;16.80;99.90;;;;;;6276776;22;20006;-84
2022/04/16 08:22:59;;;;;;;14.25;4.80;;;16.80;99.90;;;;;;6224177;22;20061;-83
2022/04/16 08:27:53;;;;;;;11.15;4.45;;;16.90;99.90;;;;;;6249191;22;20012;-85
2022/04/16 08:30:21;;;;;;;12.48;4.78;;;16.90;99.90;;;;;;6250105;22;20008;-82
2022/04/16 08:32:52;;;;;;;16.95;7.68;;;16.90;99.90;;;;;;6275799;22;20011;-85
2022/04/16 08:35:19;;;;;;;11.10;4.72;;;16.90;99.90;;;;;;6224762;22;20014;-85
2022/04/16 08:37:48;;;;;;;8.90;4.18;;;17.00;99.90;;;;;;6225181;22;20066;-83
2022/04/16 08:40:16;;;;;;;13.35;4.32;;;17.00;99.90;;;;;;6225444;22;20041;-88
2022/04/16 08:42:45;;;;;;;14.77;5.45;;;17.10;99.90;;;;;;6225968;22;20133;-87
2022/04/16 08:45:12;;;;;;;13.30;4.03;;;17.10;99.90;;;;;;6225780;22;20015;-87
2022/04/16 08:47:39;;;;;;;12.10;5.25;;;17.10;99.90;;;;;;6225270;22;20083;-87
2022/04/16 08:50:08;;;;;;;16.42;4.82;;;17.20;99.90;;;;;;6249965;22;20031;-87
2022/04/16 08:52:38;;;;;;;14.25;4.95;;;17.20;99.90;;;;;;6224232;22;20075;-87
2022/04/16 08:55:11;;;;;;;14.70;4.90;;;17.30;99.90;;;;;;6249860;22;20008;-88
2022/04/16 08:57:39;;;;;;;11.45;4.03;;;17.40;99.90;;;;;;6234051;22;20049;-87
2022/04/16 09:00:08;;;;;;;10.35;4.05;;;17.60;99.90;;;;;;6275637;22;20003;-88
2022/04/16 09:02:35;;;;;;;12.88;4.30;;;17.50;99.90;;;;;;6275013;22;20004;-87
2022/04/16 09:05:11;;;;;;;13.77;4.78;;;17.50;99.90;;;;;;6273987;22;20018;-88
2022/04/16 09:07:50;;;;;;;17.27;4.68;;;17.60;99.90;;;;;;6249679;22;20008;-85
2022/04/16 09:10:17;;;;;;;13.02;4.68;;;17.60;99.90;;;;;;6249327;22;20015;-89
2022/04/16 09:12:49;;;;;;;6.90;4.18;;;17.70;99.90;;;;;;6250342;22;20058;-94
2022/04/16 09:15:17;;;;;;;15.35;4.20;;;17.70;99.90;;;;;;6225001;22;20034;-90
2022/04/16 09:17:44;;;;;;;12.73;4.32;;;17.80;99.90;;;;;;6249674;22;20016;-94
2022/04/16 09:20:13;;;;;;;10.43;4.50;;;17.80;99.90;;;;;;6250102;22;20004;-93
2022/04/16 09:22:49;;;;;;;16.08;5.03;;;17.90;99.90;;;;;;6224728;22;20008;-92
2022/04/16 09:25:18;;;;;;;10.88;4.20;;;17.90;99.90;;;;;;6251357;22;20086;-94
2022/04/16 09:27:47;;;;;;;10.85;4.63;;;17.90;99.90;;;;;;6225924;22;20027;-93
2022/04/16 09:30:22;;;;;;;10.77;4.32;;;17.90;99.90;;;;;;6249152;22;20014;-87
2022/04/16 09:32:48;;;;;;;9.82;4.40;;;18.00;99.90;;;;;;6248946;22;20008;-86
2022/04/16 09:35:34;;;;;;;10.93;4.40;;;18.10;99.90;;;;;;6249509;22;20329;-89
2022/04/16 09:38:12;;;;;;;10.75;4.97;;;18.10;99.90;;;;;;6249352;22;20571;-91
2022/04/16 09:40:39;;;;;;;11.10;5.07;;;17.90;99.90;;;;;;6249546;22;20007;-88
2022/04/16 09:43:07;;;;;;;12.10;4.30;;;18.10;99.90;;;;;;6268568;22;20338;-90
2022/04/16 09:45:38;;;;;;;10.18;4.38;;;18.10;99.90;;;;;;6275882;22;20007;-89
2022/04/16 09:48:10;;;;;;;12.40;4.68;;;18.10;99.90;;;;;;6277431;22;20008;-87
2022/04/16 09:50:41;;;;;;;7.68;4.97;;;18.10;99.90;;;;;;6277480;22;20311;-88
2022/04/16 09:53:09;;;;;;;11.55;5.03;;;18.10;99.90;;;;;;6277416;22;20349;-87
2022/04/16 09:55:37;;;;;;;10.13;4.82;;;18.20;99.90;;;;;;6277554;22;20417;-84
2022/04/16 09:58:06;;;;;;;9.75;4.97;;;18.30;99.90;;;;;;6241670;22;20099;-86
2022/04/16 10:00:36;;;;;;;10.10;4.90;;;18.40;99.90;;;;;;6196424;23;20083;-83
2022/04/16 10:03:07;;;;;;;11.30;5.00;;;18.50;99.90;;;;;;6221614;23;20012;-85
2022/04/16 10:05:35;;;;;;;9.52;4.47;;;18.60;99.90;;;;;;6195431;23;20012;-88
2022/04/16 10:08:07;;;;;;;14.43;5.03;;;18.90;99.90;;;;;;6221680;23;20008;-88
2022/04/16 10:10:46;;;;;;;14.20;4.78;;;18.80;99.90;;;;;;6221423;23;20434;-90
2022/04/16 10:13:15;;;;;;;10.65;4.72;;;18.70;99.90;;;;;;6220042;23;20045;-85
2022/04/16 10:16:06;;;;;;;9.23;4.63;;;18.70;99.90;;;;;;6195056;23;20442;-85
2022/04/16 10:18:39;;;;;;;13.63;4.70;;;18.70;99.90;;;;;;6194773;23;20027;-84
2022/04/16 10:21:15;;;;;;;11.13;4.40;;;18.60;99.90;;;;;;6219860;23;20005;-85
2022/04/16 10:23:43;;;;;;;10.73;4.75;;;18.50;99.90;;;;;;6220269;23;20062;-84
2022/04/16 10:26:16;;;;;;;17.05;5.32;;;18.40;99.90;;;;;;6194905;23;20005;-84
2022/04/16 10:28:52;;;;;;;9.68;4.55;;;18.70;99.90;;;;;;6220174;23;20068;-85
2022/04/16 10:31:27;;;;;;;8.23;4.35;;;18.80;99.90;;;;;;6220297;23;20043;-85
2022/04/16 10:34:01;;;;;;;12.50;4.80;;;18.80;99.90;;;;;;6220099;23;20012;-84
2022/04/16 10:36:37;;;;;;;8.07;4.55;;;18.90;99.90;;;;;;6196889;23;20016;-86
2022/04/16 10:39:15;;;;;;;13.88;5.07;;;18.80;99.90;;;;;;6196347;23;20020;-86
2022/04/16 10:42:03;;;;;;;8.38;5.38;;;18.90;99.90;;;;;;6221540;23;20008;-85
2022/04/16 10:44:42;;;;;;;10.88;5.10;;;18.90;99.90;;;;;;6246482;23;20070;-85
2022/04/16 10:47:15;;;;;;;10.13;5.10;;;18.80;99.90;;;;;;6220938;23;20013;-85
2022/04/16 10:49:44;;;;;;;10.93;5.13;;;18.90;99.90;;;;;;6221037;23;20112;-85
2022/04/16 10:52:24;;;;;;;11.38;5.13;;;18.80;99.90;;;;;;6195967;23;20411;-85
2022/04/16 10:55:01;;;;;;;13.25;5.10;;;18.50;99.90;;;;;;6221105;23;20012;-85
2022/04/16 10:57:28;;;;;;;14.80;5.93;;;18.50;99.90;;;;;;6215739;22;20023;-85
2022/04/16 11:00:10;;;;;;;15.65;6.13;;;18.40;99.90;;;;;;6302624;22;20482;-85
2022/04/16 11:02:38;;;;;;;11.88;5.53;;;18.70;99.90;;;;;;6276855;22;20007;-85
2022/04/16 11:05:09;;;;;;;11.88;5.80;;;18.80;99.90;;;;;;6276526;22;20011;-85
2022/04/16 11:07:39;;;;;;;11.35;5.03;;;18.90;99.90;;;;;;6276892;22;20065;-85
2022/04/16 11:10:12;;;;;;;9.57;4.95;;;18.90;99.90;;;;;;6276601;22;20014;-85
2022/04/16 11:12:47;;;;;;;13.68;5.15;;;19.00;99.90;;;;;;6276422;22;20022;-84
2022/04/16 11:15:24;;;;;;;10.20;4.65;;;19.00;99.90;;;;;;6276857;22;20071;-85
2022/04/16 11:17:58;;;;;;;10.18;4.38;;;19.00;99.90;;;;;;6276613;22;20012;-85
2022/04/16 11:20:27;;;;;;;12.57;5.20;;;18.80;99.90;;;;;;6276715;22;20011;-85
2022/04/16 11:22:54;;;;;;;9.70;4.35;;;18.60;99.90;;;;;;6276524;22;20008;-85
2022/04/16 11:25:23;;;;;;;9.35;4.50;;;18.60;99.90;;;;;;6276482;22;20090;-85
2022/04/16 11:36:11;;;;;;;8.63;4.72;;;19.00;99.90;;;;;;6302359;22;20008;-85
2022/04/16 11:38:40;;;;;;;11.70;4.63;;;19.00;99.90;;;;;;6276180;22;20050;-84
2022/04/16 11:41:10;;;;;;;10.88;4.32;;;19.00;99.90;;;;;;6276367;22;20065;-85
2022/04/16 11:43:46;;;;;;;10.52;3.58;;;19.10;99.90;;;;;;6276514;22;20065;-85
2022/04/16 11:46:14;;;;;;;12.68;4.22;;;19.20;99.90;;;;;;6276396;22;20089;-86
2022/04/16 11:48:47;;;;;;;11.20;3.00;;;19.30;99.90;;;;;;6276535;22;20058;-85
2022/04/16 11:51:15;;;;;;;15.52;3.28;;;19.30;99.90;;;;;;6276542;22;20073;-89
2022/04/16 11:53:43;;;;;;;9.55;3.67;;;19.30;99.90;;;;;;6250846;22;20050;-84
2022/04/16 11:56:10;;;;;;;5.13;3.10;;;19.30;99.90;;;;;;6276328;22;20003;-84
2022/04/16 11:58:50;;;;;;;9.10;3.50;;;19.30;99.90;;;;;;6301682;22;20040;-83
2022/04/16 12:01:21;;;;;;;11.73;3.72;;;19.30;99.90;;;;;;6276226;22;20027;-84
2022/04/16 12:03:52;;;;;;;10.85;3.17;;;19.10;99.90;;;;;;6277610;22;20075;-84
2022/04/16 12:06:19;;;;;;;6.72;3.13;;;19.00;99.90;;;;;;6276005;22;20086;-85
2022/04/16 12:08:47;;;;;;;9.70;3.67;;;19.10;99.90;;;;;;6275948;22;20086;-84
2022/04/16 12:11:20;;;;;;;9.85;3.70;;;19.20;99.90;;;;;;6275835;22;20012;-83
2022/04/16 12:13:51;;;;;;;9.10;3.75;;;19.30;99.90;;;;;;6276024;22;20058;-83
2022/04/16 12:16:18;;;;;;;11.63;3.72;;;19.30;99.90;;;;;;6301479;22;20011;-83
2022/04/16 12:18:46;;;;;;;9.10;3.58;;;19.10;99.90;;;;;;6275779;22;20019;-83
2022/04/16 12:21:18;;;;;;;9.07;3.88;;;18.90;99.90;;;;;;6276135;22;20015;-85
2022/04/16 12:23:45;;;;;;;11.70;3.50;;;19.00;99.90;;;;;;6275958;22;20047;-83
2022/04/16 12:26:14;;;;;;;9.43;4.25;;;19.20;99.90;;;;;;6275870;22;20008;-85
2022/04/16 12:28:47;;;;;;;8.63;3.67;;;19.40;99.90;;;;;;6275908;22;20019;-84
2022/04/16 12:31:30;;;;;;;10.82;3.53;;;19.50;99.90;;;;;;6275758;22;20015;-83
2022/04/16 12:33:57;;;;;;;8.43;4.13;;;19.30;99.90;;;;;;6275558;22;20015;-83
2022/04/16 12:36:24;;;;;;;9.55;4.22;;;19.10;99.90;;;;;;6275599;22;20441;-84
2022/04/16 12:38:50;;;;;;;6.93;3.58;;;19.10;99.90;;;;;;6275617;22;20368;-83
2022/04/16 12:41:23;;;;;;;10.10;3.72;;;19.10;99.90;;;;;;6301639;22;20011;-85
2022/04/16 12:43:52;;;;;;;11.70;3.30;;;19.10;99.90;;;;;;6275620;22;20090;-84
2022/04/16 12:46:19;;;;;;;6.32;3.50;;;19.00;99.90;;;;;;6250133;22;20004;-83
2022/04/16 12:48:45;;;;;;;7.82;3.60;;;19.00;99.90;;;;;;6275564;22;20054;-83
2022/04/16 12:51:12;;;;;;;6.30;3.42;;;19.30;99.90;;;;;;6250077;22;20461;-84
2022/04/16 12:53:38;;;;;;;8.57;3.65;;;19.20;99.90;;;;;;6275591;22;20008;-83
2022/04/16 12:56:05;;;;;;;8.80;3.60;;;19.20;99.90;;;;;;6275767;22;20027;-84
2022/04/16 12:58:31;;;;;;;8.63;3.25;;;19.10;99.90;;;;;;6249655;22;20015;-82
2022/04/16 13:00:58;;;;;;;6.85;3.10;;;19.10;99.90;;;;;;6275398;22;20004;-83
2022/04/16 13:03:31;;;;;;;7.95;3.20;;;19.10;99.90;;;;;;6275314;22;20039;-85
2022/04/16 13:05:57;;;;;;;8.13;3.55;;;19.20;99.90;;;;;;6250166;22;20008;-84
2022/04/16 13:08:24;;;;;;;6.45;3.60;;;19.30;99.90;;;;;;6250207;22;20012;-87